Time;durP1;ratioP1;P1;durP2;ratioP2;P2;SDS_P1;SDS_P2;PMS_P1;PMS_P2;Temp;Humidity;BMP_temperature;BMP_pressure;BME280_temperature;BME280_humidity;BME280_pressure;Samples;Min_cycle;Max_cycle;Signal;HPM_P1;HPM_P2
2021/06/01 00:00:31;;;;;;;;;;;;;;;8.14;65.77;100696.67;125506;1104;23167;-57
2021/06/01 00:03:22;;;;;;;18.43;6.47;;;;;;;8.08;65.76;100692.92;125544;1104;21533;-57
2021/06/01 00:05:51;;;;;;;17.25;6.45;;;;;;;8.04;65.67;100697.83;125682;1096;22746;-57
2021/06/01 00:08:22;;;;;;;17.60;6.27;;;;;;;7.99;65.76;100695.61;125439;1104;22848;-58
2021/06/01 00:10:53;;;;;;;20.10;6.68;;;;;;;7.97;65.68;100695.28;125480;1104;22751;-56
2021/06/01 00:13:27;;;;;;;18.25;6.65;;;;;;;7.95;65.69;100701.30;125466;1096;26450;-57
2021/06/01 00:15:59;;;;;;;18.53;6.40;;;;;;;7.91;65.64;100697.88;125664;1104;22823;-57
2021/06/01 00:18:31;;;;;;;19.15;6.85;;;;;;;7.91;65.90;100697.09;125713;1104;22818;-57
2021/06/01 00:21:02;;;;;;;18.20;6.30;;;;;;;7.91;65.92;100688.75;125634;1102;22755;-57
2021/06/01 00:23:35;;;;;;;19.43;6.57;;;;;;;7.87;65.98;100691.66;125555;1104;22857;-58
2021/06/01 00:26:06;;;;;;;19.67;6.70;;;;;;;7.84;66.13;100694.58;125595;1096;27571;-56
2021/06/01 00:28:37;;;;;;;16.50;6.63;;;;;;;7.79;66.01;100684.80;125536;1104;22748;-57
2021/06/01 00:31:09;;;;;;;16.47;5.67;;;;;;;7.76;66.09;100685.69;125629;1096;22738;-57
2021/06/01 00:33:40;;;;;;;18.40;6.10;;;;;;;7.72;65.94;100689.80;125861;1101;24571;-54
2021/06/01 00:36:11;;;;;;;19.03;6.73;;;;;;;7.70;66.04;100686.70;125643;1096;22832;-57
2021/06/01 00:38:41;;;;;;;17.70;5.88;;;;;;;7.64;66.16;100686.50;125581;1101;22755;-57
2021/06/01 00:41:11;;;;;;;15.33;5.08;;;;;;;7.60;66.44;100685.05;125621;1104;22737;-55
2021/06/01 00:43:41;;;;;;;17.00;6.13;;;;;;;7.57;66.22;100691.53;125783;1096;22892;-56
2021/06/01 00:46:11;;;;;;;17.73;5.85;;;;;;;7.55;66.41;100696.75;125521;1096;22782;-57
2021/06/01 00:48:41;;;;;;;18.23;5.63;;;;;;;7.50;66.49;100686.19;125700;1101;22758;-57
2021/06/01 00:51:11;;;;;;;17.03;5.83;;;;;;;7.46;66.56;100693.87;125491;1104;22779;-56
2021/06/01 00:53:42;;;;;;;19.23;6.20;;;;;;;7.44;66.69;100697.10;125511;1101;22762;-55
2021/06/01 00:56:13;;;;;;;19.50;5.68;;;;;;;7.41;66.61;100695.20;125532;1096;27287;-57
2021/06/01 00:58:43;;;;;;;19.63;5.90;;;;;;;7.39;66.69;100697.65;125624;1101;22737;-57
2021/06/01 01:01:21;;;;;;;19.70;6.23;;;;;;;7.37;66.83;100699.34;125606;1101;22743;-57
2021/06/01 01:03:54;;;;;;;20.13;6.30;;;;;;;7.32;66.76;100695.13;125577;1096;25927;-56
2021/06/01 01:06:45;;;;;;;18.85;6.35;;;;;;;7.28;66.85;100692.44;125655;1102;22751;-53
2021/06/01 01:09:17;;;;;;;20.27;6.33;;;;;;;7.25;66.83;100693.34;125641;1104;22760;-57
2021/06/01 01:11:56;;;;;;;19.93;6.23;;;;;;;7.22;66.91;100688.67;125625;1101;22910;-56
2021/06/01 01:14:30;;;;;;;16.07;5.73;;;;;;;7.19;66.88;100689.58;125643;1104;22731;-56
2021/06/01 01:17:04;;;;;;;14.77;5.50;;;;;;;7.15;66.98;100690.91;125567;1096;25858;-56
2021/06/01 01:19:46;;;;;;;23.07;6.37;;;;;;;7.13;67.16;100690.57;125712;1101;22737;-57
2021/06/01 01:22:19;;;;;;;19.55;5.50;;;;;;;7.11;67.31;100685.47;125603;1096;26008;-54
2021/06/01 01:24:57;;;;;;;16.97;5.83;;;;;;;7.11;67.24;100679.92;125605;1096;25858;-57
2021/06/01 01:27:38;;;;;;;20.65;6.30;;;;;;;7.09;67.34;100681.58;125547;1104;22731;-57
2021/06/01 01:30:14;;;;;;;18.87;5.77;;;;;;;7.06;67.27;100683.23;125556;1096;26697;-58
2021/06/01 01:32:54;;;;;;;19.67;5.67;;;;;;;7.03;67.33;100686.92;125911;1096;27287;-58
2021/06/01 01:35:26;;;;;;;18.60;6.10;;;;;;;6.99;67.65;100689.03;125637;1096;22731;-56
2021/06/01 01:37:59;;;;;;;20.33;7.27;;;;;;;6.95;67.78;100684.80;125754;1096;26511;-55
2021/06/01 01:40:31;;;;;;;18.87;6.53;;;;;;;6.92;68.14;100683.69;125861;1101;24424;-57
2021/06/01 01:43:04;;;;;;;19.53;7.17;;;;;;;6.88;68.02;100685.80;125856;1101;23220;-57
2021/06/01 01:45:40;;;;;;;16.83;6.23;;;;;;;6.84;68.12;100681.56;125779;1096;26914;-57
2021/06/01 01:51:11;;;;;;;18.50;5.83;;;;;;;6.80;68.29;100680.90;125437;1099;27169;-56
2021/06/01 01:53:48;;;;;;;16.63;5.70;;;;;;;6.75;68.15;100668.34;125473;1105;22753;-57
2021/06/01 01:56:24;;;;;;;16.47;5.43;;;;;;;6.72;68.03;100666.47;125478;1099;27163;-59
2021/06/01 01:58:54;;;;;;;19.80;7.00;;;;;;;6.68;68.15;100665.80;125516;1105;22774;-56
2021/06/01 02:01:25;;;;;;;19.10;6.00;;;;;;;6.67;67.92;100660.67;125523;1100;26250;-56
2021/06/01 02:03:55;;;;;;;20.73;6.50;;;;;;;6.63;68.13;100658.02;125554;1104;22795;-56
2021/06/01 02:06:26;;;;;;;17.40;5.67;;;;;;;6.60;68.03;100663.68;125377;1104;23022;-57
2021/06/01 02:08:57;;;;;;;19.97;6.33;;;;;;;6.54;68.18;100664.21;125261;1104;22774;-55
2021/06/01 02:11:28;;;;;;;20.33;6.65;;;;;;;6.51;68.16;100664.33;125419;1104;22764;-57
2021/06/01 02:14:02;;;;;;;15.20;5.60;;;;;;;6.46;68.17;100662.09;125460;1105;22932;-56
2021/06/01 02:16:34;;;;;;;19.50;5.15;;;;;;;6.44;68.29;100662.53;125677;1104;22780;-54
2021/06/01 02:19:05;;;;;;;18.27;5.60;;;;;;;6.41;68.28;100668.19;125388;1099;27145;-57
2021/06/01 02:22:00;;;;;;;18.57;6.20;;;;;;;6.38;68.38;100660.74;125411;1099;27278;-55
2021/06/01 02:24:32;;;;;;;20.00;6.13;;;;;;;6.34;68.58;100663.63;125442;1099;22787;-57
2021/06/01 02:27:13;;;;;;;18.03;5.23;;;;;;;6.32;68.48;100663.29;125444;1100;22787;-58
2021/06/01 02:30:03;;;;;;;13.50;4.30;;;;;;;6.29;68.53;100677.27;125547;1104;22943;-58
2021/06/01 02:32:40;;;;;;;17.33;5.27;;;;;;;6.25;68.77;100663.48;125617;1101;22767;-56
2021/06/01 02:35:15;;;;;;;17.50;4.90;;;;;;;6.25;68.97;100659.92;125654;1101;22765;-58
2021/06/01 02:37:48;;;;;;;17.10;5.20;;;;;;;6.20;68.91;100655.72;125719;1102;22806;-58
2021/06/01 02:40:21;;;;;;;15.43;4.90;;;;;;;6.18;69.01;100652.61;125518;1104;25427;-57
2021/06/01 02:42:52;;;;;;;17.13;4.80;;;;;;;6.14;68.97;100651.14;125519;1101;22913;-54
2021/06/01 02:45:24;;;;;;;15.10;4.90;;;;;;;6.13;68.95;100666.20;125629;1096;25578;-58
2021/06/01 02:47:55;;;;;;;14.60;4.15;;;;;;;6.11;68.91;100661.11;125609;1096;27792;-57
2021/06/01 02:50:28;;;;;;;15.30;4.67;;;;;;;6.11;68.96;100663.88;125562;1096;27157;-55
2021/06/01 02:53:01;;;;;;;18.03;3.97;;;;;;;6.09;68.92;100658.00;125614;1096;27199;-53
2021/06/01 02:55:31;;;;;;;15.07;4.43;;;;;;;6.10;69.08;100667.89;125747;1096;26190;-55
2021/06/01 02:58:08;;;;;;;15.37;4.77;;;;;;;6.10;69.16;100667.89;126047;1101;22844;-57
2021/06/01 03:00:39;;;;;;;16.13;5.10;;;;;;;6.10;69.26;100661.56;125628;1104;22822;-54
2021/06/01 03:03:12;;;;;;;18.00;5.20;;;;;;;6.11;69.33;100654.78;125594;1101;22926;-54
2021/06/01 03:05:43;;;;;;;14.60;4.10;;;;;;;6.11;69.37;100652.01;125770;1096;22882;-54
2021/06/01 03:08:25;;;;;;;16.70;4.93;;;;;;;6.12;69.52;100653.58;125591;1096;22796;-54
2021/06/01 03:10:57;;;;;;;15.13;3.80;;;;;;;6.12;69.54;100656.35;125526;1096;22745;-56
2021/06/01 03:13:27;;;;;;;13.90;5.03;;;;;;;6.11;69.50;100652.80;125645;1096;26197;-57
2021/06/01 03:15:57;;;;;;;;;;;;;;;6.11;69.86;100654.78;125593;1096;26920;-57
2021/06/01 03:18:28;;;;;;;13.57;3.87;;;;;;;6.09;70.05;100648.90;125701;1096;24269;-56
2021/06/01 03:20:59;;;;;;;12.53;4.07;;;;;;;6.10;70.09;100633.84;125502;1104;22768;-58
2021/06/01 03:23:29;;;;;;;15.20;4.47;;;;;;;6.09;70.09;100637.81;125788;1104;22737;-55
2021/06/01 03:25:59;;;;;;;16.83;4.60;;;;;;;6.08;70.18;100644.59;125470;1104;22769;-58
2021/06/01 03:28:29;;;;;;;16.40;5.43;;;;;;;6.08;70.30;100647.36;125673;1104;22826;-57
2021/06/01 03:30:59;;;;;;;17.67;5.13;;;;;;;6.06;70.21;100653.32;125449;1101;22753;-56
2021/06/01 03:33:30;;;;;;;18.40;4.78;;;;;;;6.07;70.37;100645.79;125512;1104;22819;-56
2021/06/01 03:36:00;;;;;;;18.90;4.73;;;;;;;6.06;70.43;100644.25;125568;1104;22745;-57
2021/06/01 03:38:35;;;;;;;14.23;4.27;;;;;;;6.07;70.57;100645.79;125533;1104;22789;-57
2021/06/01 03:41:06;;;;;;;13.30;3.40;;;;;;;6.08;70.66;100652.91;125602;1104;22768;-57
2021/06/01 03:43:36;;;;;;;13.97;4.60;;;;;;;6.09;70.83;100643.36;125773;1102;22774;-55
2021/06/01 03:46:06;;;;;;;16.80;4.87;;;;;;;6.08;70.72;100641.81;125797;1096;22747;-56
2021/06/01 03:48:36;;;;;;;19.38;4.33;;;;;;;6.08;70.77;100645.38;125496;1104;22744;-56
2021/06/01 03:51:06;;;;;;;17.35;5.35;;;;;;;6.10;70.88;100647.70;125656;1104;22761;-57
2021/06/01 03:53:38;;;;;;;15.23;4.23;;;;;;;6.12;70.83;100643.28;125788;1104;22901;-57
2021/06/01 03:56:08;;;;;;;14.60;4.20;;;;;;;6.12;71.11;100637.73;125466;1096;22768;-55
2021/06/01 03:58:38;;;;;;;18.15;4.45;;;;;;;6.14;71.24;100642.83;125539;1099;27154;-57
2021/06/01 04:01:11;;;;;;;15.90;4.70;;;;;;;6.16;71.33;100643.17;125460;1096;27150;-55
2021/06/01 04:03:41;;;;;;;13.80;4.13;;;;;;;6.19;71.46;100647.82;125560;1104;22753;-56
2021/06/01 04:06:12;;;;;;;17.45;4.15;;;;;;;6.24;71.72;100645.30;125648;1096;27581;-63
2021/06/01 04:08:43;;;;;;;15.93;4.50;;;;;;;6.32;71.85;100634.77;125695;1102;22772;-56
2021/06/01 04:11:14;;;;;;;15.30;4.00;;;;;;;6.39;72.12;100634.58;126491;1087;22761;-68
2021/06/01 04:13:44;;;;;;;15.67;4.23;;;;;;;6.48;72.15;100629.14;126218;1096;26064;-60
2021/06/01 04:16:14;;;;;;;14.03;4.50;;;;;;;6.59;72.40;100635.16;129837;1101;23356;-61
2021/06/01 04:18:44;;;;;;;14.83;4.23;;;;;;;6.72;72.52;100624.85;129811;1101;22520;-61
2021/06/01 04:21:14;;;;;;;17.38;5.43;;;;;;;6.85;73.31;100630.41;129799;1101;22529;-61
2021/06/01 04:23:44;;;;;;;19.90;5.50;;;;;;;7.01;73.27;100631.06;129893;1101;22543;-60
2021/06/01 04:26:14;;;;;;;20.88;5.08;;;;;;;7.14;73.48;100628.25;129914;1101;22570;-61
2021/06/01 04:28:44;;;;;;;18.38;6.10;;;;;;;7.30;73.80;100637.22;127755;1104;25122;-61
2021/06/01 04:31:13;;;;;;;;;;;;;;;7.47;74.26;100637.10;126316;1101;22749;-60
2021/06/01 04:33:44;;;;;;;20.90;7.45;;;;;;;7.61;73.92;100629.06;126325;1104;23011;-60
2021/06/01 04:36:14;;;;;;;21.85;7.20;;;;;;;7.76;74.26;100632.13;126062;1102;22692;-61
2021/06/01 04:38:43;;;;;;;21.70;8.30;;;;;;;7.89;74.26;100630.83;126328;1097;22819;-61
2021/06/01 04:41:13;;;;;;;19.63;7.40;;;;;;;8.03;74.20;100633.09;126111;1101;22748;-61
2021/06/01 04:43:43;;;;;;;21.20;7.58;;;;;;;8.16;74.56;100630.25;126264;1102;24210;-61
2021/06/01 04:46:13;;;;;;;24.35;9.65;;;;;;;8.30;74.36;100624.19;126183;1096;27160;-60
2021/06/01 04:48:43;;;;;;;30.53;9.68;;;;;;;8.43;74.53;100632.46;126236;1097;22756;-59
2021/06/01 04:51:17;;;;;;;23.83;8.53;;;;;;;8.56;74.38;100638.73;126262;1104;22800;-58
2021/06/01 04:53:49;;;;;;;24.00;9.37;;;;;;;8.67;74.23;100642.64;126577;1104;24009;-58
2021/06/01 04:56:20;;;;;;;22.25;9.65;;;;;;;8.78;74.49;100631.09;126318;1104;22731;-58
2021/06/01 04:58:51;;;;;;;25.07;10.50;;;;;;;8.89;74.61;100637.81;126356;1101;22797;-58
2021/06/01 05:01:21;;;;;;;24.70;10.35;;;;;;;9.02;74.64;100639.71;126156;1097;26267;-60
2021/06/01 05:03:52;;;;;;;24.00;9.93;;;;;;;9.11;74.52;100642.52;126206;1103;22748;-59
2021/06/01 05:06:21;;;;;;;;;;;;;;;9.21;74.54;100642.08;126241;1101;22756;-60
2021/06/01 05:08:51;;;;;;;23.60;9.75;;;;;;;9.29;74.60;100639.80;128363;1104;21481;-59
2021/06/01 05:11:21;;;;;;;24.30;9.78;;;;;;;9.39;74.38;100646.94;126691;1097;25796;-61
2021/06/01 05:13:51;;;;;;;24.00;11.05;;;;;;;9.48;74.39;100649.73;128283;1104;22738;-60
2021/06/01 05:16:22;;;;;;;22.10;9.98;;;;;;;9.57;74.75;100650.53;127981;1104;24113;-61
2021/06/01 05:18:51;;;;;;;;;;;;;;;9.66;74.32;100652.56;126632;1096;25838;-60
2021/06/01 05:21:21;;;;;;;23.70;9.43;;;;;;;9.72;74.41;100648.67;126146;1097;21499;-61
2021/06/01 05:23:52;;;;;;;23.03;9.17;;;;;;;9.77;74.16;100645.28;126455;1103;22737;-58
2021/06/01 05:26:21;;;;;;;27.73;10.67;;;;;;;9.86;74.15;100644.52;126389;1102;22890;-58
2021/06/01 05:28:53;;;;;;;26.13;10.48;;;;;;;9.94;74.09;100650.55;126371;1096;22759;-57
2021/06/01 05:31:26;;;;;;;28.57;11.10;;;;;;;10.01;74.10;100647.46;126365;1096;22716;-60
2021/06/01 05:33:57;;;;;;;25.30;10.77;;;;;;;10.08;74.34;100650.70;126474;1104;22790;-58
2021/06/01 05:36:27;;;;;;;24.95;11.00;;;;;;;10.16;74.15;100654.00;126232;1104;22777;-58
2021/06/01 05:38:57;;;;;;;25.90;9.75;;;;;;;10.24;74.15;100655.98;126202;1097;25751;-59
2021/06/01 05:41:27;;;;;;;21.30;9.90;;;;;;;10.33;74.23;100658.77;126199;1101;22780;-60
2021/06/01 05:43:56;;;;;;;26.38;9.58;;;;;;;10.47;74.33;100651.76;126246;1103;22826;-59
2021/06/01 05:46:29;;;;;;;28.28;9.83;;;;;;;10.61;74.69;100658.72;126196;1104;24445;-60
2021/06/01 05:48:59;;;;;;;24.50;9.93;;;;;;;10.71;74.27;100661.02;126450;1097;25832;-58
2021/06/01 05:51:33;;;;;;;;;;;;;;;10.84;74.33;100664.38;126478;1104;22745;-58
2021/06/01 05:54:04;;;;;;;26.20;9.37;;;;;;;10.92;73.92;100660.03;126199;1104;21519;-58
2021/06/01 05:56:35;;;;;;;28.23;9.87;;;;;;;11.03;74.06;100657.48;126241;1096;25271;-59
2021/06/01 05:59:05;;;;;;;24.85;9.30;;;;;;;11.16;74.34;100658.05;129036;1101;22796;-59
2021/06/01 06:01:37;;;;;;;23.28;9.73;;;;;;;11.33;74.29;100667.59;126120;1096;22801;-59
2021/06/01 06:04:10;;;;;;;25.80;9.70;;;;;;;11.53;73.81;100663.43;126349;1096;26262;-58
2021/06/01 06:06:39;;;;;;;23.07;10.40;;;;;;;11.71;73.39;100664.11;126091;1104;22760;-58
2021/06/01 06:09:12;;;;;;;23.18;10.13;;;;;;;11.89;73.32;100664.00;126121;1103;22731;-58
2021/06/01 06:11:42;;;;;;;22.63;8.90;;;;;;;12.03;72.27;100652.07;126088;1103;22822;-60
2021/06/01 06:14:12;;;;;;;21.85;8.60;;;;;;;12.17;72.07;100656.91;126041;1097;24463;-58
2021/06/01 06:16:50;;;;;;;19.88;7.75;;;;;;;12.30;71.74;100642.66;126469;1101;22926;-59
2021/06/01 06:19:20;;;;;;;20.13;7.00;;;;;;;12.47;71.39;100662.55;127467;1101;22783;-58
2021/06/01 06:21:51;;;;;;;21.50;6.00;;;;;;;12.62;70.44;100658.48;127087;1101;22770;-58
2021/06/01 06:24:22;;;;;;;15.87;4.63;;;;;;;12.79;70.10;100667.17;126507;1102;24271;-58
2021/06/01 06:26:51;;;;;;;17.63;5.33;;;;;;;12.93;70.54;100655.95;126544;1101;22773;-59
2021/06/01 06:29:22;;;;;;;20.10;5.53;;;;;;;13.13;70.48;100652.48;126430;1097;22823;-61
2021/06/01 06:31:50;;;;;;;;;;;;;;;13.30;70.25;100661.92;126334;1101;22754;-57
2021/06/01 06:34:24;;;;;;;19.73;6.10;;;;;;;13.45;70.21;100659.07;126672;1101;21467;-58
2021/06/01 06:36:55;;;;;;;18.20;4.30;;;;;;;13.60;68.57;100660.55;126405;1101;22878;-59
2021/06/01 06:39:27;;;;;;;14.73;4.00;;;;;;;13.75;68.63;100657.68;126337;1097;26457;-60
2021/06/01 06:41:57;;;;;;;21.13;4.00;;;;;;;13.91;68.21;100656.33;126323;1101;22743;-60
2021/06/01 06:44:28;;;;;;;9.77;2.47;;;;;;;14.11;66.98;100647.91;126284;1104;22752;-59
2021/06/01 06:47:17;;;;;;;12.55;2.40;;;;;;;14.26;66.19;100660.58;126336;1101;22838;-59
2021/06/01 06:49:49;;;;;;;9.30;2.10;;;;;;;14.39;65.14;100657.42;125754;1096;22753;-61
2021/06/01 06:52:19;;;;;;;9.00;2.65;;;;;;;14.50;64.04;100651.92;125763;1101;22793;-60
2021/06/01 06:54:49;;;;;;;13.05;2.83;;;;;;;14.55;64.55;100645.56;125822;1101;22784;-61
2021/06/01 06:57:20;;;;;;;9.35;2.08;;;;;;;14.61;64.02;100648.45;125724;1097;22764;-60
2021/06/01 06:59:50;;;;;;;16.00;2.15;;;;;;;14.65;63.45;100644.13;125645;1097;26721;-61
2021/06/01 07:02:21;;;;;;;9.57;2.00;;;;;;;14.69;63.51;100649.54;125690;1101;22737;-61
2021/06/01 07:04:52;;;;;;;13.13;1.90;;;;;;;14.73;63.77;100656.48;125705;1096;26562;-59
2021/06/01 07:07:21;;;;;;;13.73;2.48;;;;;;;14.79;62.39;100656.52;125858;1096;25974;-59
2021/06/01 07:09:51;;;;;;;11.00;1.88;;;;;;;14.87;62.71;100649.17;125755;1096;25777;-61
2021/06/01 07:12:21;;;;;;;8.75;1.83;;;;;;;15.01;62.39;100646.22;126310;1096;22737;-62
2021/06/01 07:15:12;;;;;;;9.80;1.77;;;;;;;15.19;62.08;100626.14;126262;1102;22737;-59
2021/06/01 07:17:46;;;;;;;8.87;1.43;;;;;;;15.43;60.93;100625.04;125891;1101;22820;-58
2021/06/01 07:20:17;;;;;;;13.05;1.90;;;;;;;15.63;60.27;100622.06;125643;1101;22792;-59
2021/06/01 07:22:47;;;;;;;11.05;2.10;;;;;;;15.77;59.79;100619.05;125674;1104;22816;-61
2021/06/01 07:25:17;;;;;;;9.20;1.73;;;;;;;15.92;59.89;100619.63;125943;1101;22803;-58
2021/06/01 07:27:47;;;;;;;8.65;1.70;;;;;;;16.09;59.69;100608.41;126005;1101;22723;-60
2021/06/01 07:30:20;;;;;;;7.18;1.35;;;;;;;16.27;59.09;100607.94;126467;1101;24403;-58
2021/06/01 07:32:50;;;;;;;9.25;1.35;;;;;;;16.44;58.62;100596.69;127048;1097;25864;-60
2021/06/01 07:35:21;;;;;;;8.15;1.60;;;;;;;16.61;57.80;100592.64;126422;1101;22737;-59
2021/06/01 07:37:52;;;;;;;8.55;1.40;;;;;;;16.78;57.39;100598.27;126113;1101;22820;-59
2021/06/01 07:40:22;;;;;;;3.95;0.95;;;;;;;16.87;55.73;100592.36;125991;1101;22800;-59
2021/06/01 07:42:53;;;;;;;6.43;1.10;;;;;;;16.92;55.65;100592.34;125804;1096;22761;-59
2021/06/01 07:45:25;;;;;;;8.30;1.20;;;;;;;16.98;55.23;100595.17;125573;1104;22758;-59
2021/06/01 07:47:55;;;;;;;10.37;1.93;;;;;;;17.00;54.59;100592.61;125727;1097;27368;-59
2021/06/01 07:50:24;;;;;;;;;;;;;;;17.03;54.26;100585.91;125948;1101;22758;-57
2021/06/01 07:52:54;;;;;;;7.90;1.10;;;;;;;17.10;54.06;100584.63;126246;1101;21474;-61
2021/06/01 07:55:27;;;;;;;7.35;1.28;;;;;;;17.17;53.25;100578.47;126403;1101;22738;-61
2021/06/01 07:57:57;;;;;;;4.10;1.20;;;;;;;17.25;53.89;100582.30;126547;1101;22734;-58
2021/06/01 08:00:27;;;;;;;5.65;1.30;;;;;;;17.33;53.47;100578.42;126199;1104;24376;-60
2021/06/01 08:02:58;;;;;;;8.45;1.45;;;;;;;17.38;52.68;100568.41;126424;1101;22889;-59
2021/06/01 08:05:28;;;;;;;;;;;;;;;17.45;53.05;100577.09;126302;1102;22733;-61
2021/06/01 08:07:58;;;;;;;4.55;1.10;;;;;;;17.57;52.85;100583.48;126425;1102;21576;-60
2021/06/01 08:10:32;;;;;;;6.65;1.20;;;;;;;17.66;52.71;100586.02;126442;1102;24231;-62
2021/06/01 08:13:03;;;;;;;8.40;1.23;;;;;;;17.75;51.91;100588.56;126533;1097;26875;-60
2021/06/01 08:15:32;;;;;;;5.40;1.15;;;;;;;17.79;51.72;100589.80;126469;1097;27000;-60
2021/06/01 08:18:04;;;;;;;6.73;1.25;;;;;;;17.81;51.49;100586.48;126316;1101;22748;-59
2021/06/01 08:20:36;;;;;;;8.50;1.30;;;;;;;17.85;50.94;100591.84;126443;1104;22832;-61
2021/06/01 08:23:06;;;;;;;7.70;1.15;;;;;;;17.85;50.78;100586.19;126654;1101;22734;-60
2021/06/01 08:25:37;;;;;;;4.70;1.25;;;;;;;17.90;51.41;100580.50;126292;1101;22761;-60
2021/06/01 08:28:07;;;;;;;4.90;1.10;;;;;;;18.00;50.84;100573.25;126512;1104;22794;-60
2021/06/01 08:30:38;;;;;;;5.98;1.13;;;;;;;18.12;50.25;100571.92;126399;1096;26305;-60
2021/06/01 08:33:09;;;;;;;8.35;1.30;;;;;;;18.24;49.05;100575.42;126482;1101;22777;-60
2021/06/01 08:35:41;;;;;;;5.35;1.00;;;;;;;18.29;48.77;100564.08;126537;1101;22797;-59
2021/06/01 08:38:12;;;;;;;6.57;1.20;;;;;;;18.37;48.69;100567.86;126517;1101;22738;-60
2021/06/01 08:40:42;;;;;;;6.43;0.97;;;;;;;18.42;48.51;100564.23;126272;1104;24566;-61
2021/06/01 08:43:25;;;;;;;6.63;1.15;;;;;;;18.44;48.36;100564.51;126144;1097;25255;-59
2021/06/01 08:45:57;;;;;;;6.75;1.00;;;;;;;18.44;47.57;100567.34;126269;1096;23782;-61
2021/06/01 08:48:29;;;;;;;6.70;1.00;;;;;;;18.40;47.79;100558.34;126252;1104;24248;-59
2021/06/01 08:50:59;;;;;;;5.95;1.25;;;;;;;18.37;47.13;100570.69;126285;1102;22729;-59
2021/06/01 08:53:29;;;;;;;5.10;1.03;;;;;;;18.34;47.12;100557.63;126273;1096;27632;-61
2021/06/01 08:55:58;;;;;;;;;;;;;;;18.34;47.20;100559.67;126197;1102;24166;-59
2021/06/01 08:58:28;;;;;;;5.50;0.90;;;;;;;18.34;46.83;100562.50;126161;1102;21499;-58
2021/06/01 09:00:59;;;;;;;7.45;1.20;;;;;;;18.35;46.63;100564.80;126639;1102;25349;-59
2021/06/01 09:03:30;;;;;;;6.00;1.10;;;;;;;18.41;46.96;100559.89;126573;1101;22748;-59
2021/06/01 09:06:07;;;;;;;4.70;1.10;;;;;;;18.55;46.92;100555.17;126362;1101;22830;-60
2021/06/01 09:08:52;;;;;;;5.00;1.10;;;;;;;18.64;46.31;100549.20;126239;1101;22757;-59
2021/06/01 09:11:38;;;;;;;4.05;0.90;;;;;;;18.71;46.65;100551.42;126184;1104;22787;-60
2021/06/01 09:22:58;;;;;;;5.35;0.95;;;;;;;18.87;45.97;100544.84;126015;1104;22834;-61
2021/06/01 09:25:35;;;;;;;8.30;1.10;;;;;;;18.92;45.51;100540.42;126127;1104;22744;-60
2021/06/01 09:28:12;;;;;;;6.10;1.20;;;;;;;18.97;45.75;100533.95;126131;1104;24515;-58
2021/06/01 09:30:45;;;;;;;7.33;1.07;;;;;;;18.99;44.82;100522.88;126065;1099;26251;-61
2021/06/01 09:33:28;;;;;;;5.10;1.20;;;;;;;18.97;44.77;100522.64;127134;1104;22842;-61
2021/06/01 09:36:01;;;;;;;6.50;1.10;;;;;;;19.04;45.38;100524.86;127989;1104;22937;-62
2021/06/01 09:38:44;;;;;;;6.73;1.20;;;;;;;19.15;45.07;100519.86;126625;1104;22797;-60
2021/06/01 09:41:19;;;;;;;6.40;1.40;;;;;;;19.25;45.89;100514.59;126131;1104;22775;-62
2021/06/01 09:43:53;;;;;;;6.80;1.00;;;;;;;19.43;45.43;100499.72;126094;1099;25752;-62
2021/06/01 09:46:26;;;;;;;5.80;1.13;;;;;;;19.46;45.05;100492.23;126161;1104;22738;-61
2021/06/01 09:48:56;;;;;;;6.20;1.20;;;;;;;19.52;44.34;100493.69;126151;1099;27157;-61
2021/06/01 09:51:33;;;;;;;6.83;1.67;;;;;;;19.56;44.71;100496.98;126090;1104;22719;-61
2021/06/01 09:54:30;;;;;;;8.27;1.30;;;;;;;19.61;44.62;100489.71;126208;1101;22754;-61
2021/06/01 09:57:01;;;;;;;6.60;1.20;;;;;;;19.73;44.36;100493.91;126400;1102;22881;-61
2021/06/01 09:59:32;;;;;;;5.93;1.20;;;;;;;19.80;44.49;100487.64;126383;1101;22738;-60
2021/06/01 10:02:03;;;;;;;6.20;1.30;;;;;;;19.89;44.23;100484.40;126204;1096;26269;-60
2021/06/01 10:04:32;;;;;;;;;;;;;;;19.91;43.88;100485.40;126230;1104;22774;-60
2021/06/01 10:07:03;;;;;;;3.67;0.90;;;;;;;19.92;43.58;100486.17;126282;1096;21468;-60
2021/06/01 10:09:45;;;;;;;5.93;1.13;;;;;;;20.06;43.81;100482.85;126213;1096;27093;-61
2021/06/01 10:12:15;;;;;;;6.30;1.17;;;;;;;20.24;42.90;100486.97;126363;1101;22778;-59
2021/06/01 10:14:47;;;;;;;3.40;0.95;;;;;;;20.34;42.34;100490.17;126530;1101;22741;-61
2021/06/01 10:17:17;;;;;;;8.70;1.10;;;;;;;20.42;42.17;100479.72;126306;1101;22876;-61
2021/06/01 10:19:47;;;;;;;4.50;1.00;;;;;;;20.46;42.75;100475.27;126235;1097;25755;-60
2021/06/01 10:22:20;;;;;;;10.00;1.20;;;;;;;20.54;41.68;100484.66;126477;1101;22869;-61
2021/06/01 10:24:54;;;;;;;5.47;1.20;;;;;;;20.54;41.33;100483.89;126654;1101;22931;-60
2021/06/01 10:27:25;;;;;;;7.40;1.10;;;;;;;20.46;41.11;100485.84;126152;1096;22854;-62
2021/06/01 10:29:55;;;;;;;6.30;1.00;;;;;;;20.45;40.67;100487.91;126245;1096;26318;-58
2021/06/01 10:32:28;;;;;;;5.43;1.00;;;;;;;20.43;40.76;100473.50;126443;1101;22900;-59
2021/06/01 10:35:01;;;;;;;5.70;1.00;;;;;;;20.49;40.94;100479.84;126475;1101;22769;-60
2021/06/01 10:49:48;;;;;;;7.53;1.25;;;;;;;20.86;40.27;100478.89;126060;1104;22782;-60
2021/06/01 10:52:13;;;;;;;4.13;0.90;;;;;;;20.87;40.08;100471.92;125961;1099;26216;-60
2021/06/01 10:54:54;;;;;;;3.25;1.05;;;;;;;20.85;40.22;100469.64;126041;1099;27160;-60
2021/06/01 10:57:45;;;;;;;3.88;1.05;;;;;;;20.83;39.84;100471.48;125951;1105;22774;-61
2021/06/01 11:03:17;;;;;;;7.73;1.00;;;;;;;21.01;41.03;100462.09;125970;1099;22746;-62
2021/06/01 11:06:05;;;;;;;5.80;0.90;;;;;;;21.11;40.48;100466.05;126019;1100;24488;-62
2021/06/01 11:08:37;;;;;;;4.45;0.90;;;;;;;21.21;40.71;100464.28;126200;1104;24400;-61
2021/06/01 11:11:31;;;;;;;3.63;0.90;;;;;;;21.31;40.04;100459.67;125976;1099;27291;-61
2021/06/01 11:14:25;;;;;;;4.48;1.10;;;;;;;21.29;39.02;100462.30;126052;1099;22724;-59
2021/06/01 11:16:59;;;;;;;2.55;0.80;;;;;;;21.24;39.19;100456.75;126039;1100;22892;-62
2021/06/01 11:19:52;;;;;;;4.50;1.08;;;;;;;21.23;39.26;100452.40;126057;1099;26244;-62
2021/06/01 11:22:34;;;;;;;6.53;1.00;;;;;;;21.27;39.30;100450.73;125659;1104;22797;-60
2021/06/01 11:33:50;;;;;;;4.58;0.80;;;;;;;21.42;39.29;100453.00;125907;1101;22742;-61
2021/06/01 11:36:21;;;;;;;3.75;1.25;;;;;;;21.37;38.90;100454.67;126001;1101;22762;-60
2021/06/01 11:38:55;;;;;;;3.78;0.70;;;;;;;21.29;38.49;100447.36;125925;1101;22765;-60
2021/06/01 11:44:20;;;;;;;3.63;1.03;;;;;;;21.13;38.57;100446.39;125613;1096;22747;-61
2021/06/01 11:46:54;;;;;;;7.90;1.18;;;;;;;21.05;38.29;100439.84;125850;1097;27173;-61
2021/06/01 11:52:12;;;;;;;6.75;1.10;;;;;;;21.11;38.44;100442.56;126144;1096;23213;-61
2021/06/01 11:54:42;;;;;;;7.27;1.00;;;;;;;21.13;38.37;100448.45;126241;1102;22753;-62
2021/06/01 11:57:14;;;;;;;4.90;1.13;;;;;;;21.14;38.32;100430.89;126076;1097;26261;-62
2021/06/01 12:02:42;;;;;;;7.27;1.30;;;;;;;21.35;38.92;100436.64;126341;1101;22734;-64
2021/06/01 12:05:27;;;;;;;8.47;1.20;;;;;;;21.47;38.91;100433.02;126325;1101;23654;-62
2021/06/01 12:19:10;;;;;;;3.98;0.85;;;;;;;21.25;38.35;100433.48;125898;1099;23082;-62
2021/06/01 12:21:50;;;;;;;3.43;0.80;;;;;;;21.09;38.32;100425.31;125928;1099;22810;-62
2021/06/01 12:24:27;;;;;;;6.43;1.03;;;;;;;20.94;38.75;100434.36;125988;1099;25742;-62
2021/06/01 12:27:02;;;;;;;3.80;1.00;;;;;;;20.88;38.52;100433.70;125779;1104;22748;-62
2021/06/01 12:32:26;;;;;;;3.20;0.98;;;;;;;20.85;38.98;100423.47;125788;1100;23128;-62
2021/06/01 12:35:07;;;;;;;6.23;1.10;;;;;;;20.81;39.13;100417.36;125820;1099;25761;-62
2021/06/01 12:43:33;;;;;;;9.20;0.93;;;;;;;20.69;38.61;100413.21;125428;1103;24406;-61
2021/06/01 12:46:15;;;;;;;10.83;1.10;;;;;;;20.67;38.89;100410.16;125467;1103;27322;-62
2021/06/01 13:12:35;;;;;;;3.88;0.90;;;;;;;20.66;38.67;100408.62;125847;1104;22753;-61